sensor_id;sensor_type;location;lat;lon;timestamp;P1;durP1;ratioP1;P2;durP2;ratioP2
10250;SDS011;5170;58.692;12.478;2023-02-03T00:01:54;11.73;;;4.87;;
10250;SDS011;5170;58.692;12.478;2023-02-03T00:04:42;6.60;;;3.87;;
10250;SDS011;5170;58.692;12.478;2023-02-03T00:07:31;11.50;;;5.07;;
10250;SDS011;5170;58.692;12.478;2023-02-03T00:10:19;8.70;;;4.00;;
10250;SDS011;5170;58.692;12.478;2023-02-03T00:13:07;9.63;;;4.93;;
10250;SDS011;5170;58.692;12.478;2023-02-03T00:15:55;16.30;;;6.47;;
10250;SDS011;5170;58.692;12.478;2023-02-03T00:18:42;13.70;;;5.50;;
10250;SDS011;5170;58.692;12.478;2023-02-03T00:21:30;12.93;;;5.33;;
10250;SDS011;5170;58.692;12.478;2023-02-03T00:24:19;14.47;;;5.43;;
10250;SDS011;5170;58.692;12.478;2023-02-03T00:27:08;5.70;;;3.33;;
10250;SDS011;5170;58.692;12.478;2023-02-03T00:29:55;14.13;;;6.00;;
10250;SDS011;5170;58.692;12.478;2023-02-03T00:32:43;10.57;;;4.03;;
10250;SDS011;5170;58.692;12.478;2023-02-03T00:35:31;5.67;;;2.93;;
10250;SDS011;5170;58.692;12.478;2023-02-03T00:38:18;4.60;;;2.60;;
10250;SDS011;5170;58.692;12.478;2023-02-03T00:41:07;4.83;;;4.03;;
10250;SDS011;5170;58.692;12.478;2023-02-03T00:43:55;5.20;;;3.33;;
10250;SDS011;5170;58.692;12.478;2023-02-03T00:46:43;7.27;;;2.90;;
10250;SDS011;5170;58.692;12.478;2023-02-03T00:49:30;4.30;;;2.00;;
10250;SDS011;5170;58.692;12.478;2023-02-03T00:52:18;4.70;;;2.47;;
10250;SDS011;5170;58.692;12.478;2023-02-03T00:55:07;4.47;;;2.30;;
10250;SDS011;5170;58.692;12.478;2023-02-03T00:57:56;4.70;;;2.33;;
10250;SDS011;5170;58.692;12.478;2023-02-03T01:00:44;4.37;;;2.40;;
10250;SDS011;5170;58.692;12.478;2023-02-03T01:03:31;6.13;;;2.87;;
10250;SDS011;5170;58.692;12.478;2023-02-03T01:06:19;3.43;;;1.83;;
10250;SDS011;5170;58.692;12.478;2023-02-03T01:09:07;5.57;;;2.20;;
10250;SDS011;5170;58.692;12.478;2023-02-03T01:11:54;4.13;;;2.30;;
10250;SDS011;5170;58.692;12.478;2023-02-03T01:14:43;3.80;;;1.63;;
10250;SDS011;5170;58.692;12.478;2023-02-03T01:17:31;4.80;;;1.60;;
10250;SDS011;5170;58.692;12.478;2023-02-03T01:20:19;3.70;;;1.50;;
10250;SDS011;5170;58.692;12.478;2023-02-03T01:23:07;1.83;;;1.47;;
10250;SDS011;5170;58.692;12.478;2023-02-03T01:25:54;2.90;;;1.20;;
10250;SDS011;5170;58.692;12.478;2023-02-03T01:28:42;2.53;;;1.27;;
10250;SDS011;5170;58.692;12.478;2023-02-03T01:31:31;3.00;;;1.20;;
10250;SDS011;5170;58.692;12.478;2023-02-03T01:34:21;2.17;;;0.97;;
10250;SDS011;5170;58.692;12.478;2023-02-03T01:37:08;5.63;;;1.40;;
10250;SDS011;5170;58.692;12.478;2023-02-03T01:39:56;1.30;;;0.80;;
10250;SDS011;5170;58.692;12.478;2023-02-03T01:42:44;1.43;;;1.10;;
10250;SDS011;5170;58.692;12.478;2023-02-03T01:45:31;3.80;;;0.97;;
10250;SDS011;5170;58.692;12.478;2023-02-03T01:48:20;1.30;;;0.63;;
10250;SDS011;5170;58.692;12.478;2023-02-03T01:51:08;1.80;;;0.90;;
10250;SDS011;5170;58.692;12.478;2023-02-03T01:53:56;2.60;;;0.90;;
10250;SDS011;5170;58.692;12.478;2023-02-03T01:56:44;0.80;;;0.70;;
10250;SDS011;5170;58.692;12.478;2023-02-03T01:59:34;1.63;;;0.93;;
10250;SDS011;5170;58.692;12.478;2023-02-03T02:02:22;1.10;;;0.77;;
10250;SDS011;5170;58.692;12.478;2023-02-03T02:05:12;0.70;;;0.50;;
10250;SDS011;5170;58.692;12.478;2023-02-03T02:08:01;3.90;;;1.10;;
10250;SDS011;5170;58.692;12.478;2023-02-03T02:10:50;0.50;;;0.50;;
10250;SDS011;5170;58.692;12.478;2023-02-03T02:13:37;1.07;;;0.70;;
10250;SDS011;5170;58.692;12.478;2023-02-03T02:16:27;1.43;;;0.67;;
10250;SDS011;5170;58.692;12.478;2023-02-03T02:19:26;0.77;;;0.60;;
10250;SDS011;5170;58.692;12.478;2023-02-03T02:22:21;0.67;;;0.67;;
10250;SDS011;5170;58.692;12.478;2023-02-03T02:25:26;0.87;;;0.60;;
10250;SDS011;5170;58.692;12.478;2023-02-03T02:28:28;1.83;;;0.80;;
10250;SDS011;5170;58.692;12.478;2023-02-03T02:31:44;1.73;;;0.77;;
10250;SDS011;5170;58.692;12.478;2023-02-03T02:34:46;1.43;;;0.70;;
10250;SDS011;5170;58.692;12.478;2023-02-03T02:37:38;1.53;;;1.13;;
10250;SDS011;5170;58.692;12.478;2023-02-03T02:40:27;1.40;;;0.93;;
10250;SDS011;5170;58.692;12.478;2023-02-03T02:43:21;0.87;;;0.50;;
10250;SDS011;5170;58.692;12.478;2023-02-03T02:46:10;3.43;;;1.13;;
10250;SDS011;5170;58.692;12.478;2023-02-03T02:49:02;2.67;;;0.70;;
10250;SDS011;5170;58.692;12.478;2023-02-03T02:51:51;3.23;;;0.70;;
10250;SDS011;5170;58.692;12.478;2023-02-03T02:54:40;0.40;;;0.40;;
10250;SDS011;5170;58.692;12.478;2023-02-03T02:57:31;1.27;;;0.67;;
10250;SDS011;5170;58.692;12.478;2023-02-03T03:00:21;1.13;;;0.80;;
10250;SDS011;5170;58.692;12.478;2023-02-03T03:03:11;0.87;;;0.40;;
10250;SDS011;5170;58.692;12.478;2023-02-03T03:06:01;1.03;;;0.60;;
10250;SDS011;5170;58.692;12.478;2023-02-03T03:08:50;0.50;;;0.47;;
10250;SDS011;5170;58.692;12.478;2023-02-03T03:11:40;2.10;;;0.93;;
10250;SDS011;5170;58.692;12.478;2023-02-03T03:14:30;1.10;;;1.00;;
10250;SDS011;5170;58.692;12.478;2023-02-03T03:17:20;0.97;;;0.60;;
10250;SDS011;5170;58.692;12.478;2023-02-03T03:20:09;1.10;;;0.60;;
10250;SDS011;5170;58.692;12.478;2023-02-03T03:23:01;1.00;;;0.50;;
10250;SDS011;5170;58.692;12.478;2023-02-03T03:25:51;1.37;;;0.70;;
10250;SDS011;5170;58.692;12.478;2023-02-03T03:28:41;1.53;;;0.87;;
10250;SDS011;5170;58.692;12.478;2023-02-03T03:31:31;1.13;;;0.50;;
10250;SDS011;5170;58.692;12.478;2023-02-03T03:34:20;1.33;;;0.83;;
10250;SDS011;5170;58.692;12.478;2023-02-03T03:37:09;1.93;;;0.77;;
10250;SDS011;5170;58.692;12.478;2023-02-03T03:39:59;1.43;;;0.40;;
10250;SDS011;5170;58.692;12.478;2023-02-03T03:42:49;3.00;;;0.70;;
10250;SDS011;5170;58.692;12.478;2023-02-03T03:45:38;0.40;;;0.40;;
10250;SDS011;5170;58.692;12.478;2023-02-03T03:48:27;0.50;;;0.30;;
10250;SDS011;5170;58.692;12.478;2023-02-03T03:51:17;0.43;;;0.33;;
10250;SDS011;5170;58.692;12.478;2023-02-03T03:54:06;2.20;;;0.90;;
10250;SDS011;5170;58.692;12.478;2023-02-03T03:56:57;1.43;;;0.40;;
10250;SDS011;5170;58.692;12.478;2023-02-03T03:59:46;0.57;;;0.50;;
10250;SDS011;5170;58.692;12.478;2023-02-03T04:02:35;0.70;;;0.37;;
10250;SDS011;5170;58.692;12.478;2023-02-03T04:05:25;0.50;;;0.33;;
10250;SDS011;5170;58.692;12.478;2023-02-03T04:08:13;1.00;;;0.60;;
10250;SDS011;5170;58.692;12.478;2023-02-03T04:11:00;1.27;;;0.53;;
10250;SDS011;5170;58.692;12.478;2023-02-03T04:13:49;0.80;;;0.40;;
10250;SDS011;5170;58.692;12.478;2023-02-03T04:16:37;1.03;;;0.43;;
10250;SDS011;5170;58.692;12.478;2023-02-03T04:19:25;1.83;;;0.30;;
10250;SDS011;5170;58.692;12.478;2023-02-03T04:22:12;0.83;;;0.50;;
10250;SDS011;5170;58.692;12.478;2023-02-03T04:25:00;1.00;;;0.40;;
10250;SDS011;5170;58.692;12.478;2023-02-03T04:27:47;1.93;;;0.50;;
10250;SDS011;5170;58.692;12.478;2023-02-03T04:30:37;0.87;;;0.30;;
10250;SDS011;5170;58.692;12.478;2023-02-03T04:33:24;0.70;;;0.30;;
10250;SDS011;5170;58.692;12.478;2023-02-03T04:36:12;0.40;;;0.20;;
10250;SDS011;5170;58.692;12.478;2023-02-03T04:39:00;0.40;;;0.30;;
10250;SDS011;5170;58.692;12.478;2023-02-03T04:41:48;0.47;;;0.30;;
10250;SDS011;5170;58.692;12.478;2023-02-03T04:44:35;2.23;;;0.40;;
10250;SDS011;5170;58.692;12.478;2023-02-03T04:47:25;0.67;;;0.37;;
10250;SDS011;5170;58.692;12.478;2023-02-03T04:50:12;0.60;;;0.30;;
10250;SDS011;5170;58.692;12.478;2023-02-03T04:53:00;1.07;;;0.40;;
10250;SDS011;5170;58.692;12.478;2023-02-03T04:55:47;0.60;;;0.30;;
10250;SDS011;5170;58.692;12.478;2023-02-03T04:58:35;0.50;;;0.30;;
10250;SDS011;5170;58.692;12.478;2023-02-03T05:01:23;0.73;;;0.40;;
10250;SDS011;5170;58.692;12.478;2023-02-03T05:04:12;1.37;;;0.40;;
10250;SDS011;5170;58.692;12.478;2023-02-03T05:07:00;0.90;;;0.30;;
10250;SDS011;5170;58.692;12.478;2023-02-03T05:09:47;0.70;;;0.30;;
10250;SDS011;5170;58.692;12.478;2023-02-03T05:12:35;1.13;;;0.40;;
10250;SDS011;5170;58.692;12.478;2023-02-03T05:15:23;0.43;;;0.30;;
10250;SDS011;5170;58.692;12.478;2023-02-03T05:18:10;1.63;;;0.33;;
10250;SDS011;5170;58.692;12.478;2023-02-03T05:20:59;0.47;;;0.20;;
10250;SDS011;5170;58.692;12.478;2023-02-03T05:23:47;0.30;;;0.20;;
10250;SDS011;5170;58.692;12.478;2023-02-03T05:26:35;0.40;;;0.30;;
10250;SDS011;5170;58.692;12.478;2023-02-03T05:29:22;0.40;;;0.20;;
10250;SDS011;5170;58.692;12.478;2023-02-03T05:32:10;0.60;;;0.30;;
10250;SDS011;5170;58.692;12.478;2023-02-03T05:34:58;0.30;;;0.10;;
10250;SDS011;5170;58.692;12.478;2023-02-03T05:37:47;0.50;;;0.20;;
10250;SDS011;5170;58.692;12.478;2023-02-03T05:40:34;0.50;;;0.20;;
10250;SDS011;5170;58.692;12.478;2023-02-03T05:43:39;0.87;;;0.30;;
10250;SDS011;5170;58.692;12.478;2023-02-03T05:46:27;0.60;;;0.50;;
10250;SDS011;5170;58.692;12.478;2023-02-03T05:49:15;0.50;;;0.30;;
10250;SDS011;5170;58.692;12.478;2023-02-03T05:52:04;0.43;;;0.20;;
10250;SDS011;5170;58.692;12.478;2023-02-03T05:54:53;0.60;;;0.33;;
10250;SDS011;5170;58.692;12.478;2023-02-03T05:57:40;0.40;;;0.20;;
10250;SDS011;5170;58.692;12.478;2023-02-03T06:00:28;0.50;;;0.30;;
10250;SDS011;5170;58.692;12.478;2023-02-03T06:03:15;0.37;;;0.20;;
10250;SDS011;5170;58.692;12.478;2023-02-03T06:06:03;0.50;;;0.30;;
10250;SDS011;5170;58.692;12.478;2023-02-03T06:08:51;0.40;;;0.20;;
10250;SDS011;5170;58.692;12.478;2023-02-03T06:11:42;0.60;;;0.27;;
10250;SDS011;5170;58.692;12.478;2023-02-03T06:14:30;0.30;;;0.27;;
10250;SDS011;5170;58.692;12.478;2023-02-03T06:17:18;0.50;;;0.10;;
10250;SDS011;5170;58.692;12.478;2023-02-03T06:20:06;0.40;;;0.20;;
10250;SDS011;5170;58.692;12.478;2023-02-03T06:22:54;0.37;;;0.30;;
10250;SDS011;5170;58.692;12.478;2023-02-03T06:25:41;5.67;;;2.30;;
10250;SDS011;5170;58.692;12.478;2023-02-03T06:28:30;0.70;;;0.70;;
10250;SDS011;5170;58.692;12.478;2023-02-03T06:31:19;2.40;;;2.20;;
10250;SDS011;5170;58.692;12.478;2023-02-03T06:34:07;1.03;;;0.70;;
10250;SDS011;5170;58.692;12.478;2023-02-03T06:36:55;1.33;;;1.23;;
10250;SDS011;5170;58.692;12.478;2023-02-03T06:39:42;0.83;;;0.83;;
10250;SDS011;5170;58.692;12.478;2023-02-03T06:42:30;0.50;;;0.30;;
10250;SDS011;5170;58.692;12.478;2023-02-03T06:45:19;0.60;;;0.60;;
10250;SDS011;5170;58.692;12.478;2023-02-03T06:48:09;0.30;;;0.20;;
10250;SDS011;5170;58.692;12.478;2023-02-03T06:50:56;0.30;;;0.20;;
10250;SDS011;5170;58.692;12.478;2023-02-03T06:53:44;2.13;;;0.40;;
10250;SDS011;5170;58.692;12.478;2023-02-03T06:56:32;0.30;;;0.10;;
10250;SDS011;5170;58.692;12.478;2023-02-03T06:59:19;0.47;;;0.20;;
10250;SDS011;5170;58.692;12.478;2023-02-03T07:02:09;0.63;;;0.20;;
10250;SDS011;5170;58.692;12.478;2023-02-03T07:04:57;0.40;;;0.30;;
10250;SDS011;5170;58.692;12.478;2023-02-03T07:07:45;0.47;;;0.30;;
10250;SDS011;5170;58.692;12.478;2023-02-03T07:10:32;0.40;;;0.20;;
10250;SDS011;5170;58.692;12.478;2023-02-03T07:13:20;0.40;;;0.20;;
10250;SDS011;5170;58.692;12.478;2023-02-03T07:16:08;0.80;;;0.30;;
10250;SDS011;5170;58.692;12.478;2023-02-03T07:18:57;0.50;;;0.30;;
10250;SDS011;5170;58.692;12.478;2023-02-03T07:21:45;0.37;;;0.07;;
10250;SDS011;5170;58.692;12.478;2023-02-03T07:24:32;1.33;;;0.30;;
10250;SDS011;5170;58.692;12.478;2023-02-03T07:27:20;1.00;;;0.70;;
10250;SDS011;5170;58.692;12.478;2023-02-03T07:30:08;0.40;;;0.20;;
10250;SDS011;5170;58.692;12.478;2023-02-03T07:32:56;0.30;;;0.10;;
10250;SDS011;5170;58.692;12.478;2023-02-03T07:35:45;0.57;;;0.40;;
10250;SDS011;5170;58.692;12.478;2023-02-03T07:38:37;1.27;;;0.20;;
10250;SDS011;5170;58.692;12.478;2023-02-03T07:41:25;0.33;;;0.10;;
10250;SDS011;5170;58.692;12.478;2023-02-03T07:44:12;0.30;;;0.20;;
10250;SDS011;5170;58.692;12.478;2023-02-03T07:47:00;0.60;;;0.60;;
10250;SDS011;5170;58.692;12.478;2023-02-03T07:49:47;1.57;;;0.40;;
10250;SDS011;5170;58.692;12.478;2023-02-03T07:52:37;0.57;;;0.30;;
10250;SDS011;5170;58.692;12.478;2023-02-03T07:55:24;0.77;;;0.50;;
10250;SDS011;5170;58.692;12.478;2023-02-03T07:58:12;0.30;;;0.20;;
10250;SDS011;5170;58.692;12.478;2023-02-03T08:01:07;0.40;;;0.10;;
10250;SDS011;5170;58.692;12.478;2023-02-03T08:03:56;1.00;;;0.20;;
10250;SDS011;5170;58.692;12.478;2023-02-03T08:06:46;2.50;;;0.40;;
10250;SDS011;5170;58.692;12.478;2023-02-03T08:09:35;1.70;;;0.20;;
10250;SDS011;5170;58.692;12.478;2023-02-03T08:12:23;0.70;;;0.20;;
10250;SDS011;5170;58.692;12.478;2023-02-03T08:15:11;0.37;;;0.20;;
10250;SDS011;5170;58.692;12.478;2023-02-03T08:17:59;0.30;;;0.13;;
10250;SDS011;5170;58.692;12.478;2023-02-03T08:20:46;0.40;;;0.27;;
10250;SDS011;5170;58.692;12.478;2023-02-03T08:23:34;0.30;;;0.20;;
10250;SDS011;5170;58.692;12.478;2023-02-03T08:26:23;0.47;;;0.30;;
10250;SDS011;5170;58.692;12.478;2023-02-03T08:29:11;0.60;;;0.43;;
10250;SDS011;5170;58.692;12.478;2023-02-03T08:31:58;1.07;;;0.30;;
10250;SDS011;5170;58.692;12.478;2023-02-03T08:34:46;1.70;;;0.43;;
10250;SDS011;5170;58.692;12.478;2023-02-03T08:37:34;0.67;;;0.20;;
10250;SDS011;5170;58.692;12.478;2023-02-03T08:40:22;0.40;;;0.30;;
10250;SDS011;5170;58.692;12.478;2023-02-03T08:43:11;0.40;;;0.30;;
10250;SDS011;5170;58.692;12.478;2023-02-03T08:46:01;0.40;;;0.30;;
10250;SDS011;5170;58.692;12.478;2023-02-03T08:48:48;0.40;;;0.30;;
10250;SDS011;5170;58.692;12.478;2023-02-03T08:51:37;0.40;;;0.27;;
10250;SDS011;5170;58.692;12.478;2023-02-03T08:54:25;0.53;;;0.47;;
10250;SDS011;5170;58.692;12.478;2023-02-03T08:57:12;0.53;;;0.50;;
10250;SDS011;5170;58.692;12.478;2023-02-03T09:00:02;0.43;;;0.20;;
10250;SDS011;5170;58.692;12.478;2023-02-03T09:02:50;0.30;;;0.30;;
10250;SDS011;5170;58.692;12.478;2023-02-03T09:05:38;0.80;;;0.50;;
10250;SDS011;5170;58.692;12.478;2023-02-03T09:08:26;0.60;;;0.50;;
10250;SDS011;5170;58.692;12.478;2023-02-03T09:11:14;0.60;;;0.30;;
10250;SDS011;5170;58.692;12.478;2023-02-03T09:14:03;0.40;;;0.20;;
10250;SDS011;5170;58.692;12.478;2023-02-03T09:16:52;0.67;;;0.20;;
10250;SDS011;5170;58.692;12.478;2023-02-03T09:19:39;1.17;;;0.20;;
10250;SDS011;5170;58.692;12.478;2023-02-03T09:22:27;0.57;;;0.40;;
10250;SDS011;5170;58.692;12.478;2023-02-03T09:25:15;0.40;;;0.37;;
10250;SDS011;5170;58.692;12.478;2023-02-03T09:28:02;0.53;;;0.47;;
10250;SDS011;5170;58.692;12.478;2023-02-03T09:30:50;0.60;;;0.30;;
10250;SDS011;5170;58.692;12.478;2023-02-03T09:33:39;0.40;;;0.20;;
10250;SDS011;5170;58.692;12.478;2023-02-03T09:36:27;0.50;;;0.40;;
10250;SDS011;5170;58.692;12.478;2023-02-03T09:39:14;0.30;;;0.20;;
10250;SDS011;5170;58.692;12.478;2023-02-03T09:42:11;0.30;;;0.30;;
10250;SDS011;5170;58.692;12.478;2023-02-03T09:45:07;0.33;;;0.13;;
10250;SDS011;5170;58.692;12.478;2023-02-03T09:47:57;0.93;;;0.50;;
10250;SDS011;5170;58.692;12.478;2023-02-03T09:50:47;0.70;;;0.30;;
10250;SDS011;5170;58.692;12.478;2023-02-03T09:53:38;0.83;;;0.30;;
10250;SDS011;5170;58.692;12.478;2023-02-03T09:56:30;0.50;;;0.20;;
10250;SDS011;5170;58.692;12.478;2023-02-03T09:59:18;1.40;;;0.30;;
10250;SDS011;5170;58.692;12.478;2023-02-03T10:02:11;1.33;;;0.23;;
10250;SDS011;5170;58.692;12.478;2023-02-03T10:05:00;0.73;;;0.47;;
10250;SDS011;5170;58.692;12.478;2023-02-03T10:07:57;0.47;;;0.20;;
10250;SDS011;5170;58.692;12.478;2023-02-03T10:10:51;1.07;;;0.30;;
10250;SDS011;5170;58.692;12.478;2023-02-03T10:13:57;0.60;;;0.33;;
10250;SDS011;5170;58.692;12.478;2023-02-03T10:16:51;0.40;;;0.40;;
10250;SDS011;5170;58.692;12.478;2023-02-03T10:19:43;0.30;;;0.20;;
10250;SDS011;5170;58.692;12.478;2023-02-03T10:22:33;1.00;;;0.20;;
10250;SDS011;5170;58.692;12.478;2023-02-03T10:25:26;0.80;;;0.30;;
10250;SDS011;5170;58.692;12.478;2023-02-03T10:28:19;0.53;;;0.30;;
10250;SDS011;5170;58.692;12.478;2023-02-03T10:31:07;0.60;;;0.30;;
10250;SDS011;5170;58.692;12.478;2023-02-03T10:34:06;0.60;;;0.30;;
10250;SDS011;5170;58.692;12.478;2023-02-03T10:36:55;0.60;;;0.43;;
10250;SDS011;5170;58.692;12.478;2023-02-03T10:39:44;1.07;;;0.40;;
10250;SDS011;5170;58.692;12.478;2023-02-03T10:42:33;0.40;;;0.20;;
10250;SDS011;5170;58.692;12.478;2023-02-03T10:45:36;0.63;;;0.30;;
10250;SDS011;5170;58.692;12.478;2023-02-03T10:48:24;0.40;;;0.30;;
10250;SDS011;5170;58.692;12.478;2023-02-03T10:51:14;0.67;;;0.20;;
10250;SDS011;5170;58.692;12.478;2023-02-03T10:54:04;0.50;;;0.30;;
10250;SDS011;5170;58.692;12.478;2023-02-03T10:57:12;0.60;;;0.30;;
10250;SDS011;5170;58.692;12.478;2023-02-03T11:00:07;0.40;;;0.20;;
10250;SDS011;5170;58.692;12.478;2023-02-03T11:02:55;0.87;;;0.37;;
10250;SDS011;5170;58.692;12.478;2023-02-03T11:05:43;0.97;;;0.47;;
10250;SDS011;5170;58.692;12.478;2023-02-03T11:08:31;0.57;;;0.20;;
10250;SDS011;5170;58.692;12.478;2023-02-03T11:11:20;0.80;;;0.40;;
10250;SDS011;5170;58.692;12.478;2023-02-03T11:14:10;0.83;;;0.30;;
10250;SDS011;5170;58.692;12.478;2023-02-03T11:17:01;1.57;;;0.30;;
10250;SDS011;5170;58.692;12.478;2023-02-03T11:19:52;2.00;;;0.40;;
10250;SDS011;5170;58.692;12.478;2023-02-03T11:22:41;0.70;;;0.40;;
10250;SDS011;5170;58.692;12.478;2023-02-03T11:25:31;0.60;;;0.30;;
10250;SDS011;5170;58.692;12.478;2023-02-03T11:28:26;0.97;;;0.50;;
10250;SDS011;5170;58.692;12.478;2023-02-03T11:31:22;0.47;;;0.40;;
10250;SDS011;5170;58.692;12.478;2023-02-03T11:34:15;1.77;;;0.50;;
10250;SDS011;5170;58.692;12.478;2023-02-03T11:37:22;3.53;;;0.73;;
10250;SDS011;5170;58.692;12.478;2023-02-03T11:43:14;0.80;;;0.30;;
10250;SDS011;5170;58.692;12.478;2023-02-03T11:46:02;0.73;;;0.30;;
10250;SDS011;5170;58.692;12.478;2023-02-03T11:48:56;1.37;;;0.40;;
10250;SDS011;5170;58.692;12.478;2023-02-03T11:51:49;1.33;;;0.47;;
10250;SDS011;5170;58.692;12.478;2023-02-03T11:54:43;0.40;;;0.40;;
10250;SDS011;5170;58.692;12.478;2023-02-03T11:57:36;1.37;;;0.27;;
10250;SDS011;5170;58.692;12.478;2023-02-03T12:00:29;0.60;;;0.30;;
10250;SDS011;5170;58.692;12.478;2023-02-03T12:06:31;0.87;;;0.40;;
10250;SDS011;5170;58.692;12.478;2023-02-03T12:09:27;0.50;;;0.23;;
10250;SDS011;5170;58.692;12.478;2023-02-03T12:12:19;0.50;;;0.30;;
10250;SDS011;5170;58.692;12.478;2023-02-03T12:15:17;0.47;;;0.30;;
10250;SDS011;5170;58.692;12.478;2023-02-03T12:18:23;0.40;;;0.33;;
10250;SDS011;5170;58.692;12.478;2023-02-03T12:21:24;0.40;;;0.30;;
10250;SDS011;5170;58.692;12.478;2023-02-03T12:24:19;0.47;;;0.30;;
10250;SDS011;5170;58.692;12.478;2023-02-03T12:27:17;0.50;;;0.30;;
10250;SDS011;5170;58.692;12.478;2023-02-03T12:30:08;0.60;;;0.50;;
10250;SDS011;5170;58.692;12.478;2023-02-03T12:33:00;0.30;;;0.20;;
10250;SDS011;5170;58.692;12.478;2023-02-03T12:35:49;0.50;;;0.33;;
10250;SDS011;5170;58.692;12.478;2023-02-03T12:38:39;1.63;;;0.77;;
10250;SDS011;5170;58.692;12.478;2023-02-03T12:41:29;2.20;;;0.60;;
10250;SDS011;5170;58.692;12.478;2023-02-03T12:44:20;0.53;;;0.40;;
10250;SDS011;5170;58.692;12.478;2023-02-03T12:47:11;0.90;;;0.70;;
10250;SDS011;5170;58.692;12.478;2023-02-03T12:50:02;0.57;;;0.40;;
10250;SDS011;5170;58.692;12.478;2023-02-03T12:52:51;0.60;;;0.30;;
10250;SDS011;5170;58.692;12.478;2023-02-03T12:55:41;0.93;;;0.60;;
10250;SDS011;5170;58.692;12.478;2023-02-03T12:58:32;0.70;;;0.60;;
10250;SDS011;5170;58.692;12.478;2023-02-03T13:01:24;1.20;;;0.80;;
10250;SDS011;5170;58.692;12.478;2023-02-03T13:04:14;0.90;;;0.40;;
10250;SDS011;5170;58.692;12.478;2023-02-03T13:07:06;1.63;;;0.63;;
10250;SDS011;5170;58.692;12.478;2023-02-03T13:09:55;0.40;;;0.40;;
10250;SDS011;5170;58.692;12.478;2023-02-03T13:12:46;1.27;;;0.50;;
10250;SDS011;5170;58.692;12.478;2023-02-03T13:15:36;0.40;;;0.20;;
10250;SDS011;5170;58.692;12.478;2023-02-03T13:18:26;0.50;;;0.40;;
10250;SDS011;5170;58.692;12.478;2023-02-03T13:21:15;3.23;;;1.53;;
10250;SDS011;5170;58.692;12.478;2023-02-03T13:24:03;0.50;;;0.30;;
10250;SDS011;5170;58.692;12.478;2023-02-03T13:26:56;0.90;;;0.50;;
10250;SDS011;5170;58.692;12.478;2023-02-03T13:29:49;0.60;;;0.20;;
10250;SDS011;5170;58.692;12.478;2023-02-03T13:32:53;1.30;;;0.50;;
10250;SDS011;5170;58.692;12.478;2023-02-03T13:35:51;1.40;;;0.60;;
10250;SDS011;5170;58.692;12.478;2023-02-03T13:38:52;1.40;;;0.60;;
10250;SDS011;5170;58.692;12.478;2023-02-03T13:41:43;2.50;;;0.60;;
10250;SDS011;5170;58.692;12.478;2023-02-03T13:44:34;0.57;;;0.50;;
10250;SDS011;5170;58.692;12.478;2023-02-03T13:47:25;0.80;;;0.43;;
10250;SDS011;5170;58.692;12.478;2023-02-03T13:50:16;1.10;;;0.57;;
10250;SDS011;5170;58.692;12.478;2023-02-03T13:53:07;0.70;;;0.40;;
10250;SDS011;5170;58.692;12.478;2023-02-03T13:56:01;1.03;;;0.40;;
10250;SDS011;5170;58.692;12.478;2023-02-03T14:01:56;1.10;;;0.77;;
10250;SDS011;5170;58.692;12.478;2023-02-03T14:05:06;0.97;;;0.67;;
10250;SDS011;5170;58.692;12.478;2023-02-03T14:07:55;0.50;;;0.40;;
10250;SDS011;5170;58.692;12.478;2023-02-03T14:10:44;0.83;;;0.50;;
10250;SDS011;5170;58.692;12.478;2023-02-03T14:13:32;0.40;;;0.30;;
10250;SDS011;5170;58.692;12.478;2023-02-03T14:16:23;1.57;;;0.70;;
10250;SDS011;5170;58.692;12.478;2023-02-03T14:19:12;1.90;;;0.70;;
10250;SDS011;5170;58.692;12.478;2023-02-03T14:22:00;1.17;;;0.60;;
10250;SDS011;5170;58.692;12.478;2023-02-03T14:24:49;0.93;;;0.40;;
10250;SDS011;5170;58.692;12.478;2023-02-03T14:27:38;1.90;;;0.83;;
10250;SDS011;5170;58.692;12.478;2023-02-03T14:30:26;0.63;;;0.47;;
10250;SDS011;5170;58.692;12.478;2023-02-03T14:33:13;2.63;;;1.40;;
10250;SDS011;5170;58.692;12.478;2023-02-03T14:36:01;0.83;;;0.63;;
10250;SDS011;5170;58.692;12.478;2023-02-03T14:38:49;1.10;;;0.70;;
10250;SDS011;5170;58.692;12.478;2023-02-03T14:41:41;2.00;;;0.77;;
10250;SDS011;5170;58.692;12.478;2023-02-03T14:44:34;0.53;;;0.40;;
10250;SDS011;5170;58.692;12.478;2023-02-03T14:47:27;0.80;;;0.43;;
10250;SDS011;5170;58.692;12.478;2023-02-03T14:50:25;0.70;;;0.47;;
10250;SDS011;5170;58.692;12.478;2023-02-03T14:53:19;1.13;;;0.50;;
10250;SDS011;5170;58.692;12.478;2023-02-03T14:56:11;0.40;;;0.30;;
10250;SDS011;5170;58.692;12.478;2023-02-03T14:59:00;1.00;;;0.60;;
10250;SDS011;5170;58.692;12.478;2023-02-03T15:07:58;0.50;;;0.30;;
10250;SDS011;5170;58.692;12.478;2023-02-03T15:10:47;0.50;;;0.30;;
10250;SDS011;5170;58.692;12.478;2023-02-03T15:13:35;1.23;;;0.50;;
10250;SDS011;5170;58.692;12.478;2023-02-03T15:16:23;0.80;;;0.20;;
10250;SDS011;5170;58.692;12.478;2023-02-03T15:19:15;0.40;;;0.23;;
10250;SDS011;5170;58.692;12.478;2023-02-03T15:22:15;11.43;;;1.03;;
10250;SDS011;5170;58.692;12.478;2023-02-03T15:25:11;0.30;;;0.20;;
10250;SDS011;5170;58.692;12.478;2023-02-03T15:28:12;2.13;;;0.20;;
10250;SDS011;5170;58.692;12.478;2023-02-03T15:31:01;0.47;;;0.20;;
10250;SDS011;5170;58.692;12.478;2023-02-03T15:33:50;0.97;;;0.60;;
10250;SDS011;5170;58.692;12.478;2023-02-03T15:36:39;0.73;;;0.30;;
10250;SDS011;5170;58.692;12.478;2023-02-03T15:39:34;0.50;;;0.30;;
10250;SDS011;5170;58.692;12.478;2023-02-03T15:42:27;0.90;;;0.20;;
10250;SDS011;5170;58.692;12.478;2023-02-03T15:45:19;0.97;;;0.40;;
10250;SDS011;5170;58.692;12.478;2023-02-03T15:48:11;0.30;;;0.17;;
10250;SDS011;5170;58.692;12.478;2023-02-03T15:51:02;0.37;;;0.20;;
10250;SDS011;5170;58.692;12.478;2023-02-03T15:53:53;0.40;;;0.20;;
10250;SDS011;5170;58.692;12.478;2023-02-03T15:56:43;0.50;;;0.13;;
10250;SDS011;5170;58.692;12.478;2023-02-03T15:59:34;0.30;;;0.20;;
10250;SDS011;5170;58.692;12.478;2023-02-03T16:02:25;0.30;;;0.20;;
10250;SDS011;5170;58.692;12.478;2023-02-03T16:05:19;0.47;;;0.20;;
10250;SDS011;5170;58.692;12.478;2023-02-03T16:11:31;0.40;;;0.20;;
10250;SDS011;5170;58.692;12.478;2023-02-03T16:14:30;0.63;;;0.40;;
10250;SDS011;5170;58.692;12.478;2023-02-03T16:17:26;0.57;;;0.30;;
10250;SDS011;5170;58.692;12.478;2023-02-03T16:20:19;0.70;;;0.33;;
10250;SDS011;5170;58.692;12.478;2023-02-03T16:23:16;0.87;;;0.20;;
10250;SDS011;5170;58.692;12.478;2023-02-03T16:26:05;0.53;;;0.30;;
10250;SDS011;5170;58.692;12.478;2023-02-03T16:32:17;0.53;;;0.27;;
10250;SDS011;5170;58.692;12.478;2023-02-03T16:35:23;0.60;;;0.30;;
10250;SDS011;5170;58.692;12.478;2023-02-03T16:38:28;0.30;;;0.10;;
10250;SDS011;5170;58.692;12.478;2023-02-03T16:41:33;0.40;;;0.20;;
10250;SDS011;5170;58.692;12.478;2023-02-03T16:44:38;0.30;;;0.30;;
10250;SDS011;5170;58.692;12.478;2023-02-03T16:47:43;0.40;;;0.20;;
10250;SDS011;5170;58.692;12.478;2023-02-03T16:50:50;0.73;;;0.20;;
10250;SDS011;5170;58.692;12.478;2023-02-03T16:53:40;0.47;;;0.27;;
10250;SDS011;5170;58.692;12.478;2023-02-03T16:56:28;0.30;;;0.10;;
10250;SDS011;5170;58.692;12.478;2023-02-03T16:59:16;0.30;;;0.20;;
10250;SDS011;5170;58.692;12.478;2023-02-03T17:02:04;0.70;;;0.70;;
10250;SDS011;5170;58.692;12.478;2023-02-03T17:04:51;0.43;;;0.10;;
10250;SDS011;5170;58.692;12.478;2023-02-03T17:07:40;0.30;;;0.10;;
10250;SDS011;5170;58.692;12.478;2023-02-03T17:10:28;0.50;;;0.17;;
10250;SDS011;5170;58.692;12.478;2023-02-03T17:13:16;2.23;;;0.30;;
10250;SDS011;5170;58.692;12.478;2023-02-03T17:16:09;1.13;;;0.30;;
10250;SDS011;5170;58.692;12.478;2023-02-03T17:18:57;0.40;;;0.20;;
10250;SDS011;5170;58.692;12.478;2023-02-03T17:21:44;0.30;;;0.20;;
10250;SDS011;5170;58.692;12.478;2023-02-03T17:24:34;0.30;;;0.17;;
10250;SDS011;5170;58.692;12.478;2023-02-03T17:27:21;0.37;;;0.00;;
10250;SDS011;5170;58.692;12.478;2023-02-03T17:30:09;0.30;;;0.17;;